createdAt,value
2022-08-09T00:01:48.379Z,5.00
2022-08-09T00:04:34.648Z,4.78
2022-08-09T00:07:10.527Z,4.93
2022-08-09T00:09:38.776Z,4.80
2022-08-09T00:12:07.131Z,5.10
2022-08-09T00:14:37.777Z,4.57
2022-08-09T00:17:07.293Z,4.88
2022-08-09T00:19:35.868Z,5.05
2022-08-09T00:22:04.522Z,4.63
2022-08-09T00:24:32.878Z,4.90
2022-08-09T00:27:01.831Z,4.90
2022-08-09T00:30:16.353Z,4.57
2022-08-09T00:32:25.307Z,4.25
2022-08-09T00:34:54.376Z,6.25
2022-08-09T00:37:21.697Z,4.85
2022-08-09T00:40:13.363Z,5.07
2022-08-09T00:44:16.377Z,5.00
2022-08-09T00:45:23.717Z,5.00
2022-08-09T00:47:52.864Z,4.70
2022-08-09T00:50:26.192Z,4.85
2022-08-09T00:52:55.087Z,4.82
2022-08-09T00:56:03.596Z,4.40
2022-08-09T00:58:14.891Z,5.50
2022-08-09T01:00:58.910Z,5.78
2022-08-09T01:04:22.370Z,5.95
2022-08-09T01:08:00.026Z,5.93
2022-08-09T01:10:43.986Z,5.28
2022-08-09T01:13:18.234Z,4.97
2022-08-09T01:15:55.310Z,5.20
2022-08-09T01:18:31.366Z,5.35
2022-08-09T01:22:10.309Z,5.10
2022-08-09T01:25:19.206Z,5.10
2022-08-09T01:27:57.737Z,5.30
2022-08-09T01:30:35.755Z,5.43
2022-08-09T01:33:18.733Z,5.50
2022-08-09T01:35:54.933Z,5.97
2022-08-09T01:38:31.797Z,6.32
2022-08-09T01:41:25.866Z,5.63
2022-08-09T01:44:04.191Z,5.60
2022-08-09T01:46:42.336Z,5.88
2022-08-09T01:49:18.661Z,6.30
2022-08-09T01:52:07.429Z,5.88
2022-08-09T01:54:52.708Z,5.82
2022-08-09T01:57:45.981Z,6.95
2022-08-09T02:00:35.198Z,6.35
2022-08-09T02:03:06.654Z,6.68
2022-08-09T02:05:38.069Z,6.90
2022-08-09T02:08:38.949Z,6.93
2022-08-09T02:11:16.860Z,6.07
2022-08-09T02:14:06.124Z,7.55
2022-08-09T02:16:53.014Z,6.57
2022-08-09T02:19:38.939Z,6.82
2022-08-09T02:22:37.102Z,6.13
2022-08-09T02:25:42.414Z,7.20
2022-08-09T02:28:25.525Z,7.32
2022-08-09T02:31:11.426Z,7.38
2022-08-09T02:34:07.598Z,6.55
2022-08-09T02:36:39.724Z,6.57
2022-08-09T02:39:33.653Z,7.18
2022-08-09T02:42:07.561Z,6.80
2022-08-09T02:44:40.992Z,7.30
2022-08-09T02:47:14.073Z,6.80
2022-08-09T02:50:01.297Z,7.05
2022-08-09T02:52:58.080Z,7.32
2022-08-09T02:55:39.473Z,7.00
2022-08-09T02:58:32.771Z,7.28
2022-08-09T03:01:11.356Z,6.60
2022-08-09T03:04:18.204Z,7.38
2022-08-09T03:06:39.492Z,6.78
2022-08-09T03:09:09.841Z,6.45
2022-08-09T03:12:09.653Z,7.65
2022-08-09T03:14:29.233Z,7.13
2022-08-09T03:17:01.511Z,8.10
2022-08-09T03:19:59.162Z,6.95
2022-08-09T03:22:25.420Z,6.93
2022-08-09T03:25:21.798Z,7.95
2022-08-09T03:27:52.786Z,7.70
2022-08-09T03:30:29.482Z,8.80
2022-08-09T03:33:17.645Z,8.32
2022-08-09T03:36:12.737Z,7.53
2022-08-09T03:38:43.612Z,7.45
2022-08-09T03:41:16.587Z,7.43
2022-08-09T03:44:04.036Z,8.10
2022-08-09T03:46:35.326Z,7.93
2022-08-09T03:49:07.873Z,8.00
2022-08-09T03:51:56.288Z,8.50
2022-08-09T03:54:38.513Z,7.95
2022-08-09T03:57:20.675Z,8.05
2022-08-09T03:59:56.118Z,8.23
2022-08-09T04:02:31.505Z,8.77
2022-08-09T04:05:06.706Z,7.88
2022-08-09T04:10:29.336Z,7.47
2022-08-09T04:13:03.772Z,7.80
2022-08-09T04:15:52.434Z,8.35
2022-08-09T04:18:21.514Z,7.93
2022-08-09T04:20:51.259Z,8.23
2022-08-09T04:23:23.189Z,7.90
2022-08-09T04:25:53.523Z,8.10
2022-08-09T04:28:34.163Z,8.25
2022-08-09T04:31:07.900Z,7.75
2022-08-09T04:33:51.708Z,7.85
2022-08-09T04:36:28.567Z,7.83
2022-08-09T04:39:00.641Z,8.02
2022-08-09T04:41:32.131Z,7.78
2022-08-09T04:44:06.309Z,7.63
2022-08-09T04:46:56.729Z,7.82
2022-08-09T04:49:30.498Z,8.18
2022-08-09T04:52:21.835Z,7.60
2022-08-09T04:54:59.471Z,7.70
2022-08-09T04:57:47.448Z,7.28
2022-08-09T05:00:16.846Z,7.43
2022-08-09T05:02:51.891Z,7.07
2022-08-09T05:05:32.162Z,7.40
2022-08-09T05:08:10.340Z,7.40
2022-08-09T05:10:42.789Z,7.50
2022-08-09T05:13:13.005Z,7.95
2022-08-09T05:15:47.974Z,7.15
2022-08-09T05:18:39.707Z,7.18
2022-08-09T05:21:20.744Z,7.07
2022-08-09T05:23:59.736Z,7.45
2022-08-09T05:26:37.413Z,6.95
2022-08-09T05:29:24.094Z,7.10
2022-08-09T05:32:00.517Z,6.97
2022-08-09T05:34:32.673Z,8.15
2022-08-09T05:37:11.254Z,7.38
2022-08-09T05:39:43.524Z,6.63
2022-08-09T05:42:17.273Z,7.45
2022-08-09T05:44:54.252Z,8.13
2022-08-09T05:47:27.119Z,7.18
2022-08-09T05:50:23.221Z,7.97
2022-08-09T05:52:52.092Z,6.78
2022-08-09T05:55:24.018Z,7.10
2022-08-09T05:57:57.371Z,6.75
2022-08-09T06:00:33.110Z,6.53
2022-08-09T06:03:04.067Z,6.60
2022-08-09T06:05:58.126Z,6.93
2022-08-09T06:08:25.673Z,7.22
2022-08-09T06:10:55.612Z,6.45
2022-08-09T06:13:24.190Z,6.75
2022-08-09T06:15:52.949Z,7.18
2022-08-09T06:18:24.962Z,6.80
2022-08-09T06:20:57.686Z,6.13
2022-08-09T06:23:58.538Z,5.72
2022-08-09T06:26:22.413Z,5.43
2022-08-09T06:29:00.368Z,5.60
2022-08-09T06:31:39.277Z,4.85
2022-08-09T06:34:19.571Z,4.90
2022-08-09T06:36:46.862Z,5.00
2022-08-09T06:39:16.394Z,5.25
2022-08-09T06:42:06.370Z,4.93
2022-08-09T06:44:32.174Z,5.40
2022-08-09T06:47:01.127Z,5.30
2022-08-09T06:50:11.539Z,5.15
2022-08-09T06:52:17.588Z,5.18
2022-08-09T06:54:48.880Z,5.50
2022-08-09T06:57:18.438Z,4.93
2022-08-09T07:02:41.629Z,4.80
2022-08-09T07:05:10.678Z,5.07
2022-08-09T07:07:59.727Z,5.00
2022-08-09T07:10:31.283Z,5.28
2022-08-09T07:13:05.374Z,4.80
2022-08-09T07:16:39.286Z,4.32
2022-08-09T07:18:35.926Z,4.82
2022-08-09T07:21:07.736Z,4.88
2022-08-09T07:23:36.160Z,4.72
2022-08-09T07:26:04.322Z,4.72
2022-08-09T07:28:34.811Z,4.65
2022-08-09T07:31:04.915Z,5.20
2022-08-09T07:33:52.730Z,4.60
2022-08-09T07:36:20.872Z,4.88
2022-08-09T07:38:58.235Z,4.35
2022-08-09T07:41:28.035Z,4.40
2022-08-09T07:44:02.182Z,4.28
2022-08-09T07:46:29.911Z,4.35
2022-08-09T07:48:59.515Z,3.40
2022-08-09T07:52:06.332Z,4.18
2022-08-09T07:54:28.014Z,4.32
2022-08-09T07:56:58.591Z,4.22
2022-08-09T07:59:34.479Z,3.67
2022-08-09T08:02:19.109Z,3.95
2022-08-09T08:04:48.638Z,3.67
2022-08-09T08:08:44.515Z,3.80
2022-08-09T08:10:10.743Z,4.10
2022-08-09T08:12:45.037Z,4.40
2022-08-09T08:15:23.204Z,4.05
2022-08-09T08:17:58.038Z,4.05
2022-08-09T08:20:33.143Z,4.10
2022-08-09T08:23:16.200Z,4.40
2022-08-09T08:25:50.083Z,4.20
2022-08-09T08:28:31.868Z,4.20
2022-08-09T08:31:10.573Z,3.92
2022-08-09T08:33:53.057Z,4.03
2022-08-09T08:36:29.745Z,4.53
2022-08-09T08:38:59.700Z,4.28
2022-08-09T08:41:50.457Z,4.28
2022-08-09T08:44:23.116Z,4.97
2022-08-09T08:47:03.214Z,4.00
2022-08-09T08:49:46.301Z,4.88
2022-08-09T08:55:19.150Z,4.70
2022-08-09T08:57:57.421Z,4.45
2022-08-09T09:00:34.757Z,4.30
2022-08-09T09:03:08.708Z,3.90
2022-08-09T09:05:58.223Z,4.20
2022-08-09T09:08:38.042Z,4.07
2022-08-09T09:11:13.740Z,4.63
2022-08-09T09:13:57.234Z,4.60
2022-08-09T09:16:35.119Z,5.57
2022-08-09T09:19:37.149Z,4.32
2022-08-09T09:22:26.832Z,4.10
2022-08-09T09:26:01.354Z,4.57
2022-08-09T09:28:05.101Z,4.25
2022-08-09T09:30:41.888Z,5.22
2022-08-09T09:33:14.256Z,5.25
2022-08-09T09:36:20.226Z,5.00
2022-08-09T09:38:57.984Z,4.97
2022-08-09T09:41:33.241Z,4.68
2022-08-09T09:44:31.399Z,5.03
2022-08-09T09:47:11.683Z,5.13
2022-08-09T09:50:15.293Z,4.97
2022-08-09T09:52:37.346Z,5.05
2022-08-09T09:55:16.141Z,4.85
2022-08-09T09:58:17.010Z,5.40
2022-08-09T10:00:58.443Z,5.78
2022-08-09T10:03:57.028Z,4.63
2022-08-09T10:06:42.716Z,4.95
2022-08-09T10:09:22.312Z,4.95
2022-08-09T10:12:12.486Z,4.90
2022-08-09T10:14:48.704Z,4.55
2022-08-09T10:17:50.895Z,4.55
2022-08-09T10:20:32.347Z,4.45
2022-08-09T10:23:23.824Z,5.13
2022-08-09T10:26:04.372Z,4.72
2022-08-09T10:28:38.690Z,4.50
2022-08-09T10:34:11.450Z,4.82
2022-08-09T10:36:54.255Z,4.78
2022-08-09T10:39:23.360Z,4.78
2022-08-09T10:41:56.065Z,4.93
2022-08-09T10:44:30.323Z,4.93
2022-08-09T10:47:28.171Z,4.88
2022-08-09T10:51:09.642Z,4.80
2022-08-09T10:53:54.273Z,4.90
2022-08-09T10:56:30.822Z,4.60
2022-08-09T10:59:01.590Z,4.72
2022-08-09T11:03:15.573Z,4.32
2022-08-09T11:04:30.803Z,4.45
2022-08-09T11:07:00.276Z,5.00
2022-08-09T11:09:56.441Z,5.00
2022-08-09T11:12:32.017Z,5.22
2022-08-09T11:15:33.855Z,4.38
2022-08-09T11:20:49.758Z,5.07
2022-08-09T11:23:24.105Z,5.28
2022-08-09T11:25:57.774Z,5.18
2022-08-09T11:28:55.916Z,4.93
2022-08-09T11:31:52.791Z,5.22
2022-08-09T11:34:43.842Z,5.28
2022-08-09T11:37:41.012Z,4.97
2022-08-09T11:40:32.058Z,5.13
2022-08-09T11:43:02.695Z,5.30
2022-08-09T11:47:14.438Z,5.63
2022-08-09T11:50:55.020Z,5.38
2022-08-09T11:53:15.454Z,4.78
2022-08-09T11:55:53.644Z,5.15
2022-08-09T11:58:53.876Z,4.47
2022-08-09T12:02:17.807Z,4.70
2022-08-09T12:04:37.484Z,5.10
2022-08-09T12:07:08.419Z,4.65
2022-08-09T12:09:36.760Z,5.03
2022-08-09T12:12:28.667Z,4.68
2022-08-09T12:15:50.094Z,5.22
2022-08-09T12:18:29.861Z,4.47
2022-08-09T12:21:26.397Z,5.30
2022-08-09T12:24:09.683Z,5.70
2022-08-09T12:28:59.088Z,5.05
2022-08-09T12:30:04.338Z,4.65
2022-08-09T12:32:44.998Z,5.07
2022-08-09T12:35:19.061Z,5.18
2022-08-09T12:37:50.091Z,5.10
2022-08-09T12:40:24.973Z,4.80
2022-08-09T12:42:54.072Z,4.88
2022-08-09T12:45:34.237Z,5.07
2022-08-09T12:48:31.082Z,5.40
2022-08-09T12:51:00.435Z,4.95
2022-08-09T12:53:40.828Z,4.82
2022-08-09T12:56:43.325Z,4.68
2022-08-09T12:59:19.949Z,4.90
2022-08-09T13:02:07.233Z,5.00
2022-08-09T13:04:38.741Z,5.13
2022-08-09T13:07:19.533Z,5.20
2022-08-09T13:10:04.633Z,5.22
2022-08-09T13:12:32.509Z,5.30
2022-08-09T13:15:10.128Z,5.00
2022-08-09T13:18:03.806Z,4.90
2022-08-09T13:21:03.810Z,5.15
2022-08-09T13:24:44.372Z,5.18
2022-08-09T13:29:28.625Z,5.03
2022-08-09T13:32:19.414Z,5.40
2022-08-09T13:34:54.059Z,4.70
2022-08-09T13:37:51.120Z,4.68
2022-08-09T13:41:54.828Z,4.50
2022-08-09T13:42:59.811Z,5.28
2022-08-09T13:46:42.450Z,5.30
2022-08-09T13:48:21.941Z,5.05
2022-08-09T13:51:19.770Z,5.05
2022-08-09T13:53:48.597Z,4.78
2022-08-09T13:56:16.518Z,4.68
2022-08-09T13:58:47.787Z,4.15
2022-08-09T14:02:01.105Z,4.68
2022-08-09T14:04:05.211Z,4.70
2022-08-09T14:06:43.668Z,4.47
2022-08-09T14:09:13.737Z,5.15
2022-08-09T14:11:47.756Z,4.43
2022-08-09T14:14:23.862Z,4.60
2022-08-09T14:16:55.612Z,4.60
2022-08-09T14:19:24.354Z,4.30
2022-08-09T14:21:52.476Z,5.00
2022-08-09T14:24:22.279Z,4.70
2022-08-09T14:27:01.264Z,4.50
2022-08-09T14:30:35.227Z,4.75
2022-08-09T14:32:20.086Z,4.30
2022-08-09T14:34:59.600Z,4.82
2022-08-09T14:37:28.584Z,4.63
2022-08-09T14:40:09.696Z,4.63
2022-08-09T14:42:37.776Z,4.68
2022-08-09T14:46:57.173Z,4.15
2022-08-09T14:48:02.460Z,4.80
2022-08-09T14:50:34.942Z,5.00
2022-08-09T14:53:13.708Z,5.13
2022-08-09T14:55:47.774Z,4.30
2022-08-09T14:58:19.113Z,4.55
2022-08-09T15:00:47.924Z,4.60
2022-08-09T15:03:20.184Z,4.95
2022-08-09T15:05:52.423Z,4.68
2022-08-09T15:08:25.628Z,4.97
2022-08-09T15:11:00.756Z,4.40
2022-08-09T15:13:48.280Z,4.75
2022-08-09T15:16:19.992Z,4.50
2022-08-09T15:18:49.111Z,4.55
2022-08-09T15:21:56.132Z,4.50
2022-08-09T15:24:11.455Z,4.97
2022-08-09T15:26:45.886Z,5.45
2022-08-09T15:30:48.244Z,4.80
2022-08-09T15:32:03.543Z,4.82
2022-08-09T15:34:34.512Z,4.38
2022-08-09T15:37:23.985Z,4.40
2022-08-09T15:39:54.694Z,4.85
2022-08-09T15:42:22.487Z,5.00
2022-08-09T15:44:50.871Z,5.03
2022-08-09T15:47:22.274Z,4.68
2022-08-09T15:50:03.891Z,4.80
2022-08-09T15:52:36.476Z,5.47
2022-08-09T15:55:09.037Z,4.82
2022-08-09T15:57:44.253Z,4.53
2022-08-09T16:00:25.878Z,4.70
2022-08-09T16:02:56.136Z,4.50
2022-08-09T16:05:47.636Z,4.50
2022-08-09T16:08:31.274Z,5.15
2022-08-09T16:11:01.680Z,4.90
2022-08-09T16:14:03.978Z,5.07
2022-08-09T16:16:27.998Z,5.20
2022-08-09T16:18:56.229Z,4.50
2022-08-09T16:21:25.142Z,5.03
2022-08-09T16:24:01.734Z,4.50
2022-08-09T16:26:35.041Z,4.50
2022-08-09T16:29:12.570Z,4.25
2022-08-09T16:32:20.316Z,4.07
2022-08-09T16:34:55.743Z,3.90
2022-08-09T16:37:55.710Z,4.63
2022-08-09T16:40:12.627Z,4.38
2022-08-09T16:42:40.764Z,4.25
2022-08-09T16:45:18.703Z,4.50
2022-08-09T16:48:43.171Z,4.20
2022-08-09T16:50:38.641Z,4.95
2022-08-09T16:53:06.895Z,4.22
2022-08-09T16:55:58.698Z,4.63
2022-08-09T16:58:25.182Z,4.13
2022-08-09T17:00:53.489Z,4.20
2022-08-09T17:03:22.999Z,4.68
2022-08-09T17:06:03.402Z,4.03
2022-08-09T17:08:42.960Z,4.57
2022-08-09T17:11:41.073Z,4.60
2022-08-09T17:14:26.116Z,5.15
2022-08-09T17:17:02.895Z,4.85
2022-08-09T17:19:46.562Z,4.10
2022-08-09T17:22:28.818Z,4.70
2022-08-09T17:25:03.563Z,4.97
2022-08-09T17:27:38.667Z,4.45
2022-08-09T17:32:45.225Z,4.95
2022-08-09T17:35:14.685Z,4.72
2022-08-09T17:38:12.452Z,4.68
2022-08-09T17:40:35.131Z,4.82
2022-08-09T17:43:32.783Z,4.70
2022-08-09T17:46:03.416Z,5.28
2022-08-09T17:48:38.289Z,4.70
2022-08-09T17:51:18.754Z,4.32
2022-08-09T17:53:54.629Z,4.22
2022-08-09T17:56:35.930Z,5.30
2022-08-09T17:59:09.449Z,4.78
2022-08-09T18:02:06.870Z,4.55
2022-08-09T18:04:31.630Z,4.88
2022-08-09T18:07:00.272Z,5.07
2022-08-09T18:09:41.222Z,5.20
2022-08-09T18:12:19.514Z,6.07
2022-08-09T18:14:55.087Z,4.78
2022-08-09T18:18:03.924Z,5.03
2022-08-09T18:20:54.197Z,5.00
2022-08-09T18:23:05.647Z,4.63
2022-08-09T18:25:52.365Z,4.55
2022-08-09T18:30:36.153Z,5.00
2022-08-09T18:31:25.024Z,4.65
2022-08-09T18:33:59.808Z,5.13
2022-08-09T18:36:54.316Z,4.57
2022-08-09T18:39:32.807Z,5.13
2022-08-09T18:42:29.513Z,5.70
2022-08-09T18:45:08.709Z,5.93
2022-08-09T18:47:37.856Z,5.35
2022-08-09T18:50:34.187Z,5.50
2022-08-09T18:53:13.408Z,5.15
2022-08-09T18:56:06.390Z,6.15
2022-08-09T18:58:34.827Z,5.75
2022-08-09T19:01:06.382Z,6.25
2022-08-09T19:03:38.496Z,6.80
2022-08-09T19:06:24.202Z,6.95
2022-08-09T19:10:13.243Z,6.85
2022-08-09T19:12:36.539Z,5.93
2022-08-09T19:15:07.969Z,6.18
2022-08-09T19:17:54.473Z,5.95
2022-08-09T19:20:26.348Z,6.25
2022-08-09T19:23:16.585Z,5.97
2022-08-09T19:26:02.010Z,6.70
2022-08-09T19:29:15.364Z,7.03
2022-08-09T19:31:51.144Z,6.43
2022-08-09T19:34:24.616Z,6.15
2022-08-09T19:36:57.735Z,6.40
2022-08-09T19:39:28.872Z,5.72
2022-08-09T19:42:41.230Z,5.65
2022-08-09T19:45:15.377Z,5.80
2022-08-09T19:47:44.404Z,5.80
2022-08-09T19:50:50.204Z,5.32
2022-08-09T19:53:04.804Z,5.75
2022-08-09T19:55:52.892Z,5.28
2022-08-09T19:58:25.548Z,5.78
2022-08-09T20:00:58.380Z,6.90
2022-08-09T20:04:18.114Z,6.47
2022-08-09T20:06:23.390Z,5.93
2022-08-09T20:08:57.233Z,6.82
2022-08-09T20:11:42.949Z,5.60
2022-08-09T20:14:50.097Z,5.47
2022-08-09T20:17:19.877Z,5.22
2022-08-09T20:19:53.917Z,5.47
2022-08-09T20:24:59.324Z,4.88
2022-08-09T20:27:29.126Z,5.00
2022-08-09T20:29:57.941Z,5.10
2022-08-09T20:32:31.258Z,4.90
2022-08-09T20:35:02.148Z,5.40
2022-08-09T20:38:08.658Z,5.40
2022-08-09T20:40:26.511Z,5.10
2022-08-09T20:43:00.421Z,5.47
2022-08-09T20:46:00.492Z,5.07
2022-08-09T20:48:31.706Z,5.30
2022-08-09T20:51:01.275Z,5.75
2022-08-09T20:53:36.912Z,5.47
2022-08-09T20:56:20.529Z,4.72
2022-08-09T20:58:58.846Z,5.50
2022-08-09T21:01:33.248Z,6.20
2022-08-09T21:05:50.730Z,5.22
2022-08-09T21:07:11.962Z,5.38
2022-08-09T21:09:56.869Z,14.23
2022-08-09T21:15:23.728Z,39.38
2022-08-09T21:18:21.069Z,37.53
2022-08-09T21:20:54.215Z,29.45
2022-08-09T21:23:35.944Z,22.08
2022-08-09T21:26:12.522Z,14.02
2022-08-09T21:28:55.341Z,12.20
2022-08-09T21:31:23.605Z,10.60
2022-08-09T21:33:56.701Z,7.32
2022-08-09T21:36:28.599Z,6.45
2022-08-09T21:38:59.626Z,6.78
2022-08-09T21:42:04.514Z,6.43
2022-08-09T21:44:33.785Z,5.70
2022-08-09T21:47:10.301Z,5.35
2022-08-09T21:49:43.351Z,5.57
2022-08-09T21:52:17.628Z,5.63
2022-08-09T21:55:03.162Z,5.43
2022-08-09T21:57:39.191Z,4.82
2022-08-09T22:00:32.396Z,5.65
2022-08-09T22:03:19.118Z,5.43
2022-08-09T22:05:53.307Z,5.35
2022-08-09T22:08:25.932Z,5.82
2022-08-09T22:11:26.442Z,5.60
2022-08-09T22:13:48.830Z,6.10
2022-08-09T22:16:22.864Z,6.30
2022-08-09T22:18:55.915Z,5.70
2022-08-09T22:21:51.186Z,6.60
2022-08-09T22:24:24.066Z,6.43
2022-08-09T22:26:53.745Z,5.85
2022-08-09T22:29:28.824Z,5.70
2022-08-09T22:32:07.212Z,5.70
2022-08-09T22:35:02.259Z,5.43
2022-08-09T22:38:07.144Z,6.03
2022-08-09T22:40:35.743Z,6.10
2022-08-09T22:43:16.192Z,6.43
2022-08-09T22:48:16.013Z,6.00
2022-08-09T22:48:39.026Z,6.20
2022-08-09T22:51:23.738Z,6.32
2022-08-09T22:54:01.070Z,6.00
2022-08-09T22:56:59.484Z,5.40
2022-08-09T22:59:55.905Z,6.03
2022-08-09T23:02:15.948Z,5.70
2022-08-09T23:04:53.668Z,5.32
2022-08-09T23:08:27.826Z,5.85
2022-08-09T23:10:38.204Z,5.38
2022-08-09T23:13:12.687Z,5.20
2022-08-09T23:15:43.122Z,6.28
2022-08-09T23:18:11.449Z,5.50
2022-08-09T23:20:38.881Z,5.57
2022-08-09T23:23:31.866Z,6.07
2022-08-09T23:26:01.950Z,5.25
2022-08-09T23:28:34.126Z,5.40
2022-08-09T23:31:03.570Z,6.03
2022-08-09T23:34:00.952Z,5.57
2022-08-09T23:36:56.837Z,4.90
2022-08-09T23:39:25.182Z,5.28
2022-08-09T23:41:52.530Z,5.22
2022-08-09T23:44:22.360Z,5.38
2022-08-09T23:46:52.892Z,6.07
2022-08-09T23:49:26.084Z,5.00
2022-08-09T23:51:54.216Z,5.00
2022-08-09T23:54:26.740Z,4.90
2022-08-09T23:56:58.212Z,5.20
